createdAt,value
2018-01-16T00:00:10.160Z,47.60
2018-01-16T00:02:38.514Z,45.80
2018-01-16T00:05:06.128Z,45.80
2018-01-16T00:07:34.482Z,43.20
2018-01-16T00:10:03.944Z,43.20
2018-01-16T00:12:31.529Z,43.20
2018-01-16T00:14:59.963Z,42.80
2018-01-16T00:17:28.335Z,43.20
2018-01-16T00:19:56.698Z,42.80
2018-01-16T00:22:36.174Z,42.70
2018-01-16T00:25:04.531Z,41.90
2018-01-16T00:27:32.159Z,41.90
2018-01-16T00:29:59.736Z,43.10
2018-01-16T00:32:27.332Z,45.00
2018-01-16T00:34:54.955Z,45.10
2018-01-16T00:37:22.547Z,46.00
2018-01-16T00:39:50.931Z,46.30
2018-01-16T00:42:20.286Z,46.10
2018-01-16T00:44:47.898Z,46.10
2018-01-16T00:47:15.481Z,47.50
2018-01-16T00:49:43.085Z,47.10
2018-01-16T00:52:10.718Z,47.80
2018-01-16T00:54:38.312Z,48.00
2018-01-16T00:57:05.926Z,48.40
2018-01-16T00:59:33.522Z,47.20
2018-01-16T01:02:01.948Z,45.70
2018-01-16T01:04:29.555Z,45.70
2018-01-16T01:06:57.920Z,45.40
2018-01-16T01:09:25.530Z,45.00
2018-01-16T01:11:53.126Z,45.00
2018-01-16T01:14:20.736Z,44.20
2018-01-16T01:16:48.324Z,44.70
2018-01-16T01:19:16.728Z,44.10
2018-01-16T01:21:44.479Z,44.00
2018-01-16T01:24:12.832Z,44.20
2018-01-16T01:26:40.450Z,44.30
2018-01-16T01:29:08.166Z,44.80
2018-01-16T01:31:38.044Z,44.40
2018-01-16T01:34:05.631Z,44.40
2018-01-16T01:36:33.231Z,42.90
2018-01-16T01:39:01.605Z,43.20
2018-01-16T01:41:29.198Z,43.20
2018-01-16T01:43:56.812Z,43.50
2018-01-16T01:46:24.415Z,44.00
2018-01-16T01:49:05.005Z,44.50
2018-01-16T01:51:32.616Z,44.40
2018-01-16T01:54:00.970Z,47.00
2018-01-16T01:56:28.717Z,47.00
2018-01-16T01:58:56.367Z,47.20
2018-01-16T02:01:24.062Z,46.90
2018-01-16T02:03:51.665Z,46.60
2018-01-16T02:06:20.769Z,47.40
2018-01-16T02:08:49.151Z,47.80
2018-01-16T02:11:16.743Z,47.80
2018-01-16T02:13:45.254Z,50.30
2018-01-16T02:16:12.839Z,50.10
2018-01-16T02:18:40.427Z,50.30
2018-01-16T02:21:08.033Z,50.90
2018-01-16T02:23:36.387Z,52.80
2018-01-16T02:26:04.309Z,52.80
2018-01-16T02:28:31.894Z,53.10
2018-01-16T02:30:59.479Z,53.30
2018-01-16T02:33:27.105Z,54.50
2018-01-16T02:35:54.711Z,52.70
2018-01-16T02:38:23.094Z,54.10
2018-01-16T02:40:50.689Z,54.10
2018-01-16T02:43:20.889Z,55.90
2018-01-16T02:45:48.590Z,55.90
2018-01-16T02:48:16.214Z,57.00
2018-01-16T02:50:44.582Z,58.70
2018-01-16T02:53:12.170Z,58.70
2018-01-16T02:55:40.658Z,59.30
2018-01-16T02:58:08.234Z,59.40
2018-01-16T03:00:36.622Z,60.10
2018-01-16T03:03:04.990Z,60.10
2018-01-16T03:05:32.652Z,60.10
2018-01-16T03:08:01.849Z,57.70
2018-01-16T03:10:29.426Z,57.70
2018-01-16T03:12:57.034Z,55.60
2018-01-16T03:15:24.641Z,57.30
2018-01-16T03:17:52.257Z,58.00
2018-01-16T03:20:19.831Z,58.30
2018-01-16T03:22:47.541Z,59.20
2018-01-16T03:25:15.932Z,60.30
2018-01-16T03:27:45.072Z,59.80
2018-01-16T03:30:12.673Z,59.80
2018-01-16T03:32:40.409Z,60.00
2018-01-16T03:35:08.042Z,61.50
2018-01-16T03:37:35.628Z,63.10
2018-01-16T03:40:03.213Z,64.20
2018-01-16T03:42:30.849Z,63.80
2018-01-16T03:44:59.212Z,58.30
2018-01-16T03:47:26.799Z,58.20
2018-01-16T03:49:55.147Z,58.50
2018-01-16T03:52:22.787Z,58.50
2018-01-16T03:54:50.375Z,59.40
2018-01-16T03:57:17.969Z,59.80
2018-01-16T03:59:46.343Z,58.00
2018-01-16T04:02:13.935Z,57.70
2018-01-16T04:04:42.389Z,56.70
2018-01-16T04:07:11.492Z,55.90
2018-01-16T04:09:39.127Z,55.90
2018-01-16T04:12:06.738Z,54.80
2018-01-16T04:14:35.089Z,53.40
2018-01-16T04:17:02.702Z,53.40
2018-01-16T04:19:30.293Z,55.20
2018-01-16T04:21:58.644Z,55.90
2018-01-16T04:24:27.028Z,56.10
2018-01-16T04:26:55.386Z,57.40
2018-01-16T04:29:22.992Z,57.40
2018-01-16T04:31:50.582Z,56.10
2018-01-16T04:34:18.232Z,52.40
2018-01-16T04:36:45.946Z,53.10
2018-01-16T04:39:14.296Z,54.30
2018-01-16T04:41:41.904Z,54.30
2018-01-16T04:44:09.490Z,55.30
2018-01-16T04:46:37.878Z,53.70
2018-01-16T04:49:05.484Z,54.20
2018-01-16T04:51:33.032Z,53.60
2018-01-16T04:54:00.692Z,53.90
2018-01-16T04:56:28.304Z,52.60
2018-01-16T04:58:56.682Z,47.80
2018-01-16T05:01:24.276Z,47.70
2018-01-16T05:03:52.636Z,48.70
2018-01-16T05:06:20.232Z,48.70
2018-01-16T05:08:48.608Z,50.00
2018-01-16T05:11:16.963Z,51.20
2018-01-16T05:13:46.103Z,52.30
2018-01-16T05:16:13.693Z,52.20
2018-01-16T05:18:41.348Z,53.50
2018-01-16T05:21:08.970Z,54.60
2018-01-16T05:23:36.560Z,55.00
2018-01-16T05:26:04.973Z,55.90
2018-01-16T05:28:32.573Z,55.80
2018-01-16T05:31:00.923Z,56.60
2018-01-16T05:33:28.537Z,56.40
2018-01-16T05:35:56.137Z,56.30
2018-01-16T05:38:23.763Z,56.10
2018-01-16T05:40:52.111Z,54.00
2018-01-16T05:43:19.703Z,54.00
2018-01-16T05:45:47.313Z,53.30
2018-01-16T05:48:14.921Z,53.10
2018-01-16T05:50:42.719Z,52.60
2018-01-16T05:53:10.308Z,52.70
2018-01-16T05:55:38.697Z,52.00
2018-01-16T05:58:06.305Z,52.00
2018-01-16T06:00:33.978Z,55.00
2018-01-16T06:03:01.607Z,56.20
2018-01-16T06:05:29.208Z,56.60
2018-01-16T06:07:56.829Z,57.70
2018-01-16T06:10:24.456Z,57.40
2018-01-16T06:12:52.086Z,56.20
2018-01-16T06:15:19.674Z,54.60
2018-01-16T06:17:47.282Z,53.60
2018-01-16T06:20:14.888Z,55.60
2018-01-16T06:22:42.497Z,55.20
2018-01-16T06:25:10.894Z,55.70
2018-01-16T06:27:39.234Z,54.90
2018-01-16T06:30:06.822Z,54.90
2018-01-16T06:32:34.454Z,53.80
2018-01-16T06:35:02.063Z,52.50
2018-01-16T06:37:30.453Z,51.70
2018-01-16T06:39:58.806Z,51.30
2018-01-16T06:42:26.394Z,51.30
2018-01-16T06:44:54.862Z,49.70
2018-01-16T06:47:22.483Z,49.60
2018-01-16T06:49:50.137Z,49.80
2018-01-16T06:52:17.727Z,49.90
2018-01-16T06:54:45.503Z,50.00
2018-01-16T06:57:13.096Z,50.10
2018-01-16T06:59:40.691Z,50.90
2018-01-16T07:02:08.293Z,51.40
2018-01-16T07:04:35.966Z,48.90
2018-01-16T07:07:03.672Z,45.20
2018-01-16T07:09:31.457Z,43.30
2018-01-16T07:11:59.821Z,43.40
2018-01-16T07:14:27.450Z,43.40
2018-01-16T07:16:55.056Z,42.90
2018-01-16T07:19:23.455Z,43.10
2018-01-16T07:21:51.823Z,43.40
2018-01-16T07:24:19.427Z,43.40
2018-01-16T07:26:47.047Z,43.60
2018-01-16T07:29:14.621Z,44.80
2018-01-16T07:31:43.133Z,45.50
2018-01-16T07:34:10.739Z,45.40
2018-01-16T07:36:38.359Z,46.80
2018-01-16T07:39:05.959Z,45.50
2018-01-16T07:41:33.891Z,46.30
2018-01-16T07:44:02.279Z,47.10
2018-01-16T07:46:29.865Z,47.00
2018-01-16T07:48:57.497Z,47.50
2018-01-16T07:51:25.853Z,47.60
2018-01-16T07:53:53.487Z,47.50
2018-01-16T07:56:21.096Z,48.00
2018-01-16T07:58:49.474Z,47.30
2018-01-16T08:01:17.096Z,46.80
2018-01-16T08:03:44.683Z,46.50
2018-01-16T08:06:12.314Z,47.40
2018-01-16T08:08:39.906Z,47.30
2018-01-16T08:11:07.546Z,47.70
2018-01-16T08:13:35.305Z,48.10
2018-01-16T08:16:02.933Z,48.10
2018-01-16T08:18:32.089Z,48.00
2018-01-16T08:20:59.709Z,47.90
2018-01-16T08:23:27.335Z,46.30
2018-01-16T08:25:54.978Z,46.00
2018-01-16T08:28:22.604Z,45.40
2018-01-16T08:30:50.454Z,44.20
2018-01-16T08:33:18.077Z,43.60
2018-01-16T08:35:45.725Z,43.10
2018-01-16T08:38:14.200Z,43.00
2018-01-16T08:40:42.594Z,43.50
2018-01-16T08:43:11.022Z,42.60
2018-01-16T08:45:38.666Z,42.60
2018-01-16T08:48:06.321Z,42.40
2018-01-16T08:50:34.721Z,42.70
2018-01-16T08:53:02.642Z,42.70
2018-01-16T08:55:30.282Z,43.00
2018-01-16T08:57:57.911Z,42.60
2018-01-16T09:00:25.564Z,41.90
2018-01-16T09:02:53.947Z,41.50
2018-01-16T09:05:22.342Z,41.80
2018-01-16T09:07:50.752Z,40.60
2018-01-16T09:10:18.398Z,41.00
2018-01-16T09:12:46.022Z,40.10
2018-01-16T09:15:13.688Z,40.00
2018-01-16T09:17:42.082Z,40.00
2018-01-16T09:20:09.696Z,40.00
2018-01-16T09:22:37.332Z,40.20
2018-01-16T09:25:05.706Z,40.00
2018-01-16T09:27:34.128Z,41.40
2018-01-16T09:30:01.758Z,41.30
2018-01-16T09:32:30.159Z,43.50
2018-01-16T09:34:58.555Z,42.90
2018-01-16T09:37:26.568Z,42.90
2018-01-16T09:39:54.183Z,44.80
2018-01-16T09:42:22.589Z,46.70
2018-01-16T09:44:50.247Z,46.60
2018-01-16T09:47:17.879Z,48.10
2018-01-16T09:49:45.520Z,49.00
2018-01-16T09:52:13.141Z,50.40
2018-01-16T09:54:40.790Z,50.70
2018-01-16T09:57:09.263Z,52.40
2018-01-16T09:59:37.663Z,52.20
2018-01-16T10:02:06.081Z,51.20
2018-01-16T10:04:33.732Z,51.10
2018-01-16T10:07:01.398Z,51.50
2018-01-16T10:09:29.049Z,50.60
2018-01-16T10:11:57.438Z,47.90
2018-01-16T10:14:25.072Z,47.90
2018-01-16T10:16:52.698Z,47.70
2018-01-16T10:19:20.339Z,47.70
2018-01-16T10:21:47.953Z,47.20
2018-01-16T10:24:15.623Z,45.80
2018-01-16T10:26:43.254Z,45.30
2018-01-16T10:29:11.697Z,45.30
2018-01-16T10:31:39.355Z,45.30
2018-01-16T10:34:07.038Z,45.20
2018-01-16T10:36:35.472Z,44.70
2018-01-16T10:39:03.064Z,44.70
2018-01-16T10:41:31.479Z,43.60
2018-01-16T10:43:59.894Z,42.80
2018-01-16T10:46:27.576Z,42.80
2018-01-16T10:48:55.200Z,42.30
2018-01-16T10:51:23.668Z,43.00
2018-01-16T10:53:51.286Z,42.90
2018-01-16T10:56:18.892Z,43.90
2018-01-16T10:58:47.628Z,46.80
2018-01-16T11:01:15.252Z,46.30
2018-01-16T11:03:43.038Z,47.40
2018-01-16T11:06:11.462Z,49.20
2018-01-16T11:08:39.146Z,49.10
2018-01-16T11:11:06.804Z,50.00
2018-01-16T11:13:34.442Z,51.10
2018-01-16T11:16:02.063Z,52.00
2018-01-16T11:18:29.851Z,53.20
2018-01-16T11:20:58.242Z,55.40
2018-01-16T11:23:26.650Z,55.40
2018-01-16T11:25:54.284Z,55.40
2018-01-16T11:28:22.699Z,57.50
2018-01-16T11:30:50.331Z,57.50
2018-01-16T11:33:18.744Z,58.80
2018-01-16T11:35:46.468Z,58.80
2018-01-16T11:38:14.098Z,59.20
2018-01-16T11:40:41.734Z,60.20
2018-01-16T11:43:09.362Z,60.00
2018-01-16T11:45:37.021Z,60.80
2018-01-16T11:48:04.670Z,60.80
2018-01-16T11:50:32.330Z,60.10
2018-01-16T11:52:59.965Z,60.40
2018-01-16T11:55:27.737Z,60.70
2018-01-16T11:57:55.382Z,61.80
2018-01-16T12:00:23.765Z,62.50
2018-01-16T12:02:52.181Z,64.00
2018-01-16T12:05:19.805Z,63.40
2018-01-16T12:07:47.439Z,64.00
2018-01-16T12:10:15.049Z,64.00
2018-01-16T12:12:43.441Z,64.10
2018-01-16T12:15:11.845Z,64.50
2018-01-16T12:17:39.477Z,64.50
2018-01-16T12:20:07.876Z,63.70
2018-01-16T12:22:36.277Z,63.00
2018-01-16T12:25:03.902Z,63.00
2018-01-16T12:27:31.546Z,62.60
2018-01-16T12:29:59.182Z,62.20
2018-01-16T12:32:26.822Z,62.10
2018-01-16T12:34:55.238Z,60.30
2018-01-16T12:37:22.892Z,60.20
2018-01-16T12:39:50.512Z,60.90
2018-01-16T12:42:18.334Z,60.80
2018-01-16T12:44:45.990Z,61.10
2018-01-16T12:47:13.624Z,62.00
2018-01-16T12:49:42.041Z,63.60
2018-01-16T12:52:09.698Z,63.50
2018-01-16T12:54:38.095Z,64.80
2018-01-16T12:57:06.609Z,65.60
2018-01-16T12:59:34.263Z,65.50
2018-01-16T13:02:01.878Z,65.60
2018-01-16T13:04:30.269Z,66.70
2018-01-16T13:06:58.764Z,66.90
2018-01-16T13:09:27.147Z,66.00
2018-01-16T13:11:55.556Z,65.90
2018-01-16T13:14:23.291Z,65.90
2018-01-16T13:16:51.825Z,65.70
2018-01-16T13:19:19.448Z,65.60
2018-01-16T13:21:47.871Z,65.20
2018-01-16T13:24:15.489Z,65.10
2018-01-16T13:26:43.267Z,65.30
2018-01-16T13:29:11.642Z,66.60
2018-01-16T13:31:39.281Z,66.60
2018-01-16T13:34:06.999Z,66.80
2018-01-16T13:36:34.613Z,67.60
2018-01-16T13:39:02.289Z,67.20
2018-01-16T13:41:30.681Z,63.10
2018-01-16T13:43:58.301Z,62.90
2018-01-16T13:46:25.954Z,62.10
2018-01-16T13:48:53.697Z,62.30
2018-01-16T13:51:22.314Z,63.10
2018-01-16T13:53:49.955Z,63.00
2018-01-16T13:56:18.353Z,65.70
2018-01-16T13:58:46.054Z,65.20
2018-01-16T14:01:13.711Z,67.00
2018-01-16T14:03:41.539Z,67.70
2018-01-16T14:06:09.936Z,69.10
2018-01-16T14:08:38.353Z,70.00
2018-01-16T14:11:06.087Z,70.00
2018-01-16T14:13:34.489Z,71.60
2018-01-16T14:16:02.141Z,71.60
2018-01-16T14:18:30.524Z,72.70
2018-01-16T14:20:58.941Z,73.00
2018-01-16T14:23:26.570Z,73.00
2018-01-16T14:25:55.062Z,71.70
2018-01-16T14:28:22.704Z,71.70
2018-01-16T14:30:51.097Z,72.00
2018-01-16T14:33:19.609Z,71.20
2018-01-16T14:35:47.232Z,71.10
2018-01-16T14:38:14.886Z,71.70
2018-01-16T14:40:42.559Z,72.00
2018-01-16T14:43:10.978Z,72.60
2018-01-16T14:45:39.449Z,72.60
2018-01-16T14:48:07.834Z,73.30
2018-01-16T14:50:36.260Z,73.00
2018-01-16T14:53:03.906Z,73.00
2018-01-16T14:55:31.498Z,73.10
2018-01-16T14:57:59.114Z,72.90
2018-01-16T15:00:27.473Z,71.90
2018-01-16T15:02:55.100Z,71.80
2018-01-16T15:05:22.696Z,71.30
2018-01-16T15:07:50.311Z,71.50
2018-01-16T15:10:18.690Z,72.00
2018-01-16T15:12:47.072Z,72.20
2018-01-16T15:15:15.396Z,73.10
2018-01-16T15:17:42.984Z,73.00
2018-01-16T15:20:11.518Z,74.20
2018-01-16T15:22:39.135Z,74.20
2018-01-16T15:25:06.762Z,73.30
2018-01-16T15:27:34.364Z,71.10
2018-01-16T15:30:01.992Z,72.20
2018-01-16T15:32:29.586Z,72.60
2018-01-16T15:34:57.190Z,73.20
2018-01-16T15:37:25.564Z,73.10
2018-01-16T15:39:53.152Z,73.10
2018-01-16T15:42:20.816Z,73.20
2018-01-16T15:44:49.177Z,73.10
2018-01-16T15:47:16.795Z,73.10
2018-01-16T15:49:44.482Z,73.30
2018-01-16T15:52:12.095Z,72.40
2018-01-16T15:54:40.487Z,73.00
2018-01-16T15:57:08.094Z,72.50
2018-01-16T15:59:35.719Z,72.50
2018-01-16T16:02:03.320Z,72.20
2018-01-16T16:04:31.775Z,72.80
2018-01-16T16:06:59.667Z,72.20
2018-01-16T16:09:28.157Z,72.30
2018-01-16T16:11:55.750Z,72.70
2018-01-16T16:14:23.422Z,72.50
2018-01-16T16:16:51.187Z,72.40
2018-01-16T16:19:19.559Z,72.40
2018-01-16T16:21:47.155Z,72.40
2018-01-16T16:24:15.580Z,71.50
2018-01-16T16:26:43.268Z,71.90
2018-01-16T16:29:10.999Z,71.90
2018-01-16T16:31:38.631Z,71.70
2018-01-16T16:34:07.026Z,72.00
2018-01-16T16:36:35.422Z,72.20
2018-01-16T16:39:03.822Z,72.40
2018-01-16T16:41:31.429Z,72.50
2018-01-16T16:43:59.054Z,72.80
2018-01-16T16:46:26.672Z,73.10
2018-01-16T16:48:55.092Z,73.00
2018-01-16T16:51:22.683Z,73.00
2018-01-16T16:53:50.582Z,72.70
2018-01-16T16:56:18.300Z,72.80
2018-01-16T16:58:45.906Z,72.80
2018-01-16T17:01:13.720Z,73.10
2018-01-16T17:03:42.100Z,73.50
2018-01-16T17:06:10.526Z,73.50
2018-01-16T17:08:38.166Z,73.50
2018-01-16T17:11:05.785Z,73.60
2018-01-16T17:13:35.019Z,73.60
2018-01-16T17:16:02.853Z,73.60
2018-01-16T17:18:30.624Z,73.90
2018-01-16T17:20:58.242Z,73.10
2018-01-16T17:23:25.840Z,73.00
2018-01-16T17:25:54.048Z,73.00
2018-01-16T17:28:23.390Z,73.00
2018-01-16T17:30:51.834Z,73.10
2018-01-16T17:33:21.028Z,73.10
2018-01-16T17:35:48.629Z,73.10
2018-01-16T17:38:17.105Z,72.90
2018-01-16T17:40:44.736Z,72.90
2018-01-16T17:43:12.366Z,73.70
2018-01-16T17:45:40.001Z,72.90
2018-01-16T17:48:07.644Z,72.90
2018-01-16T17:50:36.077Z,72.50
2018-01-16T17:53:03.785Z,73.10
2018-01-16T17:55:31.387Z,73.10
2018-01-16T17:57:59.040Z,73.40
2018-01-16T18:00:27.461Z,71.90
2018-01-16T18:02:55.138Z,71.80
2018-01-16T18:05:22.804Z,71.50
2018-01-16T18:07:50.423Z,71.60
2018-01-16T18:10:18.070Z,71.60
2018-01-16T18:12:45.825Z,70.70
2018-01-16T18:15:13.427Z,70.50
2018-01-16T18:17:42.609Z,71.40
2018-01-16T18:20:10.257Z,71.40
2018-01-16T18:22:37.921Z,72.10
2018-01-16T18:25:05.628Z,72.40
2018-01-16T18:27:34.033Z,73.10
2018-01-16T18:30:02.496Z,73.40
2018-01-16T18:32:31.680Z,73.40
2018-01-16T18:34:59.375Z,73.40
2018-01-16T18:37:27.831Z,73.80
2018-01-16T18:39:55.900Z,73.60
2018-01-16T18:42:23.612Z,73.60
2018-01-16T18:44:51.355Z,73.40
2018-01-16T18:47:20.570Z,73.40
2018-01-16T18:49:48.416Z,73.40
2018-01-16T18:52:16.246Z,73.80
2018-01-16T18:54:43.942Z,73.80
2018-01-16T18:57:11.647Z,73.80
2018-01-16T18:59:40.396Z,74.50
2018-01-16T19:02:08.111Z,74.20
2018-01-16T19:04:35.828Z,74.30
2018-01-16T19:07:03.675Z,74.50
2018-01-16T19:09:31.328Z,74.70
2018-01-16T19:11:59.803Z,74.80
2018-01-16T19:14:28.310Z,74.90
2018-01-16T19:16:56.018Z,74.90
2018-01-16T19:19:25.085Z,75.10
2018-01-16T19:21:53.068Z,75.10
2018-01-16T19:24:21.336Z,75.00
2018-01-16T19:26:48.984Z,74.40
2018-01-16T19:29:16.649Z,74.50
2018-01-16T19:31:45.745Z,74.30
2018-01-16T19:34:14.216Z,74.30
2018-01-16T19:36:41.923Z,74.30
2018-01-16T19:39:09.928Z,74.40
2018-01-16T19:41:37.575Z,74.30
2018-01-16T19:44:06.003Z,74.20
2018-01-16T19:46:34.432Z,74.00
2018-01-16T19:49:04.032Z,73.80
2018-01-16T19:51:31.899Z,73.80
2018-01-16T19:53:59.638Z,73.80
2018-01-16T19:56:28.521Z,73.70
2018-01-16T19:58:56.991Z,73.40
2018-01-16T20:01:26.289Z,73.60
2018-01-16T20:03:56.485Z,73.30
2018-01-16T20:06:24.918Z,73.10
2018-01-16T20:08:53.809Z,73.00
2018-01-16T20:11:21.981Z,72.70
2018-01-16T20:13:49.818Z,73.00
2018-01-16T20:16:17.565Z,72.80
2018-01-16T20:18:45.212Z,72.30
2018-01-16T20:21:13.241Z,72.30
2018-01-16T20:23:40.895Z,72.30
2018-01-16T20:26:08.670Z,72.20
2018-01-16T20:28:37.247Z,71.70
2018-01-16T20:31:05.682Z,72.00
2018-01-16T20:33:33.326Z,71.90
2018-01-16T20:36:00.990Z,71.90
2018-01-16T20:38:28.831Z,72.00
2018-01-16T20:40:56.499Z,72.00
2018-01-16T20:43:24.910Z,71.90
2018-01-16T20:45:52.780Z,71.90
2018-01-16T20:48:20.490Z,71.60
2018-01-16T20:50:48.182Z,71.70
2018-01-16T20:53:16.558Z,71.20
2018-01-16T20:55:44.186Z,71.20
2018-01-16T20:58:11.786Z,70.80
2018-01-16T21:00:40.217Z,70.20
2018-01-16T21:03:07.876Z,69.70
2018-01-16T21:05:35.548Z,69.30
2018-01-16T21:08:03.146Z,69.10
2018-01-16T21:10:30.875Z,68.80
2018-01-16T21:12:58.521Z,68.50
2018-01-16T21:15:26.878Z,68.30
2018-01-16T21:17:54.683Z,68.20
2018-01-16T21:20:22.310Z,68.70
2018-01-16T21:22:49.981Z,69.20
2018-01-16T21:25:17.599Z,69.70
2018-01-16T21:27:45.295Z,69.60
2018-01-16T21:30:12.899Z,69.80
2018-01-16T21:32:40.502Z,69.50
2018-01-16T21:35:08.125Z,69.40
2018-01-16T21:37:36.523Z,70.40
2018-01-16T21:40:06.471Z,70.50
2018-01-16T21:42:34.086Z,70.50
2018-01-16T21:45:02.502Z,71.10
2018-01-16T21:47:30.905Z,71.20
2018-01-16T21:49:58.517Z,71.20
2018-01-16T21:52:26.155Z,71.20
2018-01-16T21:54:53.865Z,71.10
2018-01-16T21:57:22.276Z,71.70
2018-01-16T21:59:49.887Z,71.60
2018-01-16T22:02:19.002Z,71.80
2018-01-16T22:04:46.624Z,71.70
2018-01-16T22:07:14.245Z,72.00
2018-01-16T22:09:41.883Z,72.20
2018-01-16T22:12:09.494Z,72.50
2018-01-16T22:14:37.885Z,72.50
2018-01-16T22:17:05.480Z,72.50
2018-01-16T22:19:33.142Z,72.70
2018-01-16T22:22:00.764Z,72.70
2018-01-16T22:24:29.386Z,72.70
2018-01-16T22:26:57.040Z,72.70
2018-01-16T22:29:24.636Z,72.80
2018-01-16T22:31:52.294Z,72.80
2018-01-16T22:34:19.908Z,72.90
2018-01-16T22:36:48.291Z,73.20
2018-01-16T22:39:15.909Z,73.10
2018-01-16T22:41:43.497Z,73.70
2018-01-16T22:44:11.168Z,73.60
2018-01-16T22:46:38.770Z,73.80
2018-01-16T22:49:07.131Z,74.20
2018-01-16T22:51:35.519Z,74.20
2018-01-16T22:54:03.109Z,74.20
2018-01-16T22:56:31.513Z,73.90
2018-01-16T22:58:59.153Z,73.90
2018-01-16T23:01:27.518Z,74.00
2018-01-16T23:03:55.146Z,74.00
2018-01-16T23:06:22.747Z,73.90
2018-01-16T23:08:50.359Z,74.10
2018-01-16T23:11:17.945Z,73.80
2018-01-16T23:13:45.570Z,74.00
2018-01-16T23:16:13.917Z,73.70
2018-01-16T23:18:41.496Z,73.70
2018-01-16T23:21:09.890Z,74.30
2018-01-16T23:23:38.246Z,73.90
2018-01-16T23:26:06.628Z,73.90
2018-01-16T23:28:34.243Z,73.90
2018-01-16T23:31:01.873Z,74.10
2018-01-16T23:33:29.484Z,73.40
2018-01-16T23:35:57.091Z,73.40
2018-01-16T23:38:26.302Z,73.30
2018-01-16T23:40:53.909Z,73.30
2018-01-16T23:43:21.532Z,73.50
2018-01-16T23:45:50.623Z,73.50
2018-01-16T23:48:18.214Z,73.50
2018-01-16T23:50:46.014Z,73.70
2018-01-16T23:53:13.618Z,73.40
2018-01-16T23:55:41.246Z,73.60
2018-01-16T23:58:08.824Z,73.50
